createdAt,value
2023-01-28T00:01:47.662Z,99.91
2023-01-28T00:04:15.379Z,99.50
2023-01-28T00:06:43.043Z,99.37
2023-01-28T00:09:10.736Z,99.76
2023-01-28T00:11:38.117Z,99.87
2023-01-28T00:14:05.442Z,99.04
2023-01-28T00:16:32.883Z,99.66
2023-01-28T00:19:00.289Z,99.34
2023-01-28T00:21:27.623Z,99.35
2023-01-28T00:23:56.477Z,98.51
2023-01-28T00:26:25.428Z,97.66
2023-01-28T00:28:53.141Z,96.43
2023-01-28T00:31:26.327Z,97.46
2023-01-28T00:33:55.341Z,97.13
2023-01-28T00:36:25.109Z,98.06
2023-01-28T00:38:57.573Z,95.84
2023-01-28T00:41:28.251Z,94.92
2023-01-28T00:43:56.208Z,94.84
2023-01-28T00:46:26.557Z,95.80
2023-01-28T00:48:54.162Z,95.51
2023-01-28T00:51:21.740Z,96.70
2023-01-28T00:53:49.934Z,96.83
2023-01-28T00:56:18.040Z,97.36
2023-01-28T00:58:46.094Z,95.77
2023-01-28T01:01:16.484Z,96.76
2023-01-28T01:03:44.189Z,98.45
2023-01-28T01:06:12.812Z,96.24
2023-01-28T01:08:42.961Z,96.58
2023-01-28T01:11:13.637Z,97.19
2023-01-28T01:13:41.717Z,97.47
2023-01-28T01:16:12.075Z,97.60
2023-01-28T01:18:43.327Z,98.26
2023-01-28T01:21:13.913Z,96.88
2023-01-28T01:23:41.722Z,97.51
2023-01-28T01:26:09.838Z,95.73
2023-01-28T01:28:37.865Z,96.42
2023-01-28T01:31:08.439Z,95.26
2023-01-28T01:33:36.069Z,96.48
2023-01-28T01:36:03.785Z,96.36
2023-01-28T01:38:31.313Z,96.24
2023-01-28T01:40:59.850Z,95.58
2023-01-28T01:43:49.661Z,95.40
2023-01-28T01:46:23.249Z,96.32
2023-01-28T01:48:52.093Z,97.09
2023-01-28T01:51:24.596Z,96.43
2023-01-28T01:53:55.091Z,96.93
2023-01-28T01:56:28.583Z,97.20
2023-01-28T01:58:58.217Z,97.53
2023-01-28T02:01:29.405Z,96.91
2023-01-28T02:04:12.915Z,94.68
2023-01-28T02:06:42.153Z,94.49
2023-01-28T02:09:26.252Z,94.12
2023-01-28T02:11:58.096Z,94.01
2023-01-28T02:14:31.915Z,93.76
2023-01-28T02:17:03.122Z,93.97
2023-01-28T02:19:55.140Z,93.11
2023-01-28T02:22:44.534Z,94.42
2023-01-28T02:25:48.858Z,93.72
2023-01-28T02:28:36.174Z,93.18
2023-01-28T02:31:39.965Z,93.58
2023-01-28T02:34:25.411Z,93.85
2023-01-28T02:37:02.943Z,92.79
2023-01-28T02:39:36.288Z,92.98
2023-01-28T02:42:09.989Z,95.18
2023-01-28T02:44:39.749Z,94.75
2023-01-28T02:47:32.732Z,93.74
2023-01-28T02:50:04.833Z,92.45
2023-01-28T02:53:09.637Z,92.92
2023-01-28T02:56:01.945Z,93.79
2023-01-28T02:58:55.525Z,91.92
2023-01-28T03:01:39.356Z,92.48
2023-01-28T03:04:55.992Z,93.69
2023-01-28T03:07:25.450Z,92.22
2023-01-28T03:09:54.205Z,92.34
2023-01-28T03:12:48.394Z,94.66
2023-01-28T03:15:47.927Z,94.65
2023-01-28T03:18:41.837Z,95.06
2023-01-28T03:21:36.771Z,95.29
2023-01-28T03:24:30.797Z,96.05
2023-01-28T03:27:29.106Z,94.03
2023-01-28T03:30:27.336Z,94.06
2023-01-28T03:33:15.579Z,94.48
2023-01-28T03:36:02.007Z,95.71
2023-01-28T03:38:34.081Z,96.19
2023-01-28T03:41:04.226Z,96.18
2023-01-28T03:43:32.582Z,96.86
2023-01-28T03:46:00.470Z,97.27
2023-01-28T03:48:29.041Z,96.88
2023-01-28T03:50:57.595Z,96.51
2023-01-28T03:53:28.315Z,97.79
2023-01-28T03:55:57.397Z,97.63
2023-01-28T03:58:27.271Z,97.65
2023-01-28T04:00:55.083Z,97.96
2023-01-28T04:03:22.609Z,97.51
2023-01-28T04:06:03.646Z,97.93
2023-01-28T04:08:59.612Z,97.01
2023-01-28T04:11:30.127Z,96.24
2023-01-28T04:13:59.143Z,95.59
2023-01-28T04:16:29.223Z,94.31
2023-01-28T04:18:58.069Z,96.54
2023-01-28T04:21:25.600Z,95.51
2023-01-28T04:23:53.037Z,94.59
2023-01-28T04:26:20.391Z,93.38
2023-01-28T04:28:47.943Z,92.99
2023-01-28T04:31:15.381Z,92.02
2023-01-28T04:33:42.778Z,92.27
2023-01-28T04:36:21.263Z,91.04
2023-01-28T04:39:20.870Z,91.22
2023-01-28T04:42:06.871Z,91.22
2023-01-28T04:44:57.266Z,90.62
2023-01-28T04:47:53.949Z,91.94
2023-01-28T04:50:31.303Z,93.25
2023-01-28T04:53:20.656Z,93.14
2023-01-28T04:55:58.905Z,93.07
2023-01-28T04:58:29.886Z,93.91
2023-01-28T05:01:01.963Z,91.84
2023-01-28T05:03:30.200Z,91.80
2023-01-28T05:05:57.782Z,92.08
2023-01-28T05:08:36.193Z,92.45
2023-01-28T05:11:03.981Z,92.92
2023-01-28T05:13:31.423Z,94.88
2023-01-28T05:15:59.041Z,94.28
2023-01-28T05:18:26.537Z,93.19
2023-01-28T05:21:15.245Z,93.77
2023-01-28T05:23:44.195Z,93.31
2023-01-28T05:26:11.565Z,93.39
2023-01-28T05:28:39.317Z,93.93
2023-01-28T05:31:08.685Z,93.99
2023-01-28T05:33:36.246Z,94.18
2023-01-28T05:36:06.356Z,93.43
2023-01-28T05:38:34.187Z,95.95
2023-01-28T05:41:01.712Z,95.36
2023-01-28T05:43:29.483Z,95.14
2023-01-28T05:46:16.423Z,95.52
2023-01-28T05:49:12.293Z,95.42
2023-01-28T05:51:55.369Z,94.91
2023-01-28T05:54:23.490Z,95.30
2023-01-28T05:56:50.820Z,95.56
2023-01-28T05:59:18.455Z,96.50
2023-01-28T06:01:48.345Z,94.60
2023-01-28T06:04:18.915Z,96.56
2023-01-28T06:06:47.645Z,95.53
2023-01-28T06:09:16.003Z,95.55
2023-01-28T06:11:44.449Z,95.50
2023-01-28T06:14:11.917Z,95.56
2023-01-28T06:16:57.751Z,96.31
2023-01-28T06:19:25.046Z,95.58
2023-01-28T06:21:52.283Z,96.11
2023-01-28T06:24:20.614Z,96.99
2023-01-28T06:26:48.160Z,97.91
2023-01-28T06:29:16.042Z,99.08
2023-01-28T06:31:43.601Z,98.20
2023-01-28T06:34:11.150Z,98.64
2023-01-28T06:36:38.423Z,98.66
2023-01-28T06:39:05.702Z,97.64
2023-01-28T06:41:32.862Z,99.21
2023-01-28T06:44:00.122Z,98.11
2023-01-28T06:46:27.501Z,97.33
2023-01-28T06:48:54.899Z,97.37
2023-01-28T06:51:22.281Z,97.25
2023-01-28T06:53:49.740Z,97.20
2023-01-28T06:56:17.061Z,96.59
2023-01-28T06:58:44.330Z,97.46
2023-01-28T07:01:11.789Z,97.14
2023-01-28T07:03:39.182Z,96.96
2023-01-28T07:06:06.780Z,98.02
2023-01-28T07:08:34.612Z,99.08
2023-01-28T07:11:02.130Z,98.49
2023-01-28T07:13:29.589Z,100.00
2023-01-28T07:15:57.011Z,100.00
2023-01-28T07:18:24.445Z,99.05
2023-01-28T07:20:51.679Z,97.01
2023-01-28T07:23:19.143Z,96.59
2023-01-28T07:25:46.503Z,95.89
2023-01-28T07:28:14.372Z,97.12
2023-01-28T07:30:41.684Z,98.13
2023-01-28T07:33:10.843Z,98.43
2023-01-28T07:35:38.408Z,98.91
2023-01-28T07:38:05.767Z,99.56
2023-01-28T07:40:32.947Z,98.69
2023-01-28T07:43:01.109Z,98.71
2023-01-28T07:45:36.913Z,97.88
2023-01-28T07:48:07.491Z,96.70
2023-01-28T07:50:37.327Z,96.06
2023-01-28T07:53:11.455Z,95.54
2023-01-28T07:55:39.570Z,95.46
2023-01-28T07:58:08.578Z,95.46
2023-01-28T08:00:37.629Z,96.05
2023-01-28T08:03:16.090Z,95.74
2023-01-28T08:05:49.619Z,92.26
2023-01-28T08:08:17.416Z,90.74
2023-01-28T08:10:46.269Z,88.21
2023-01-28T08:13:15.781Z,84.91
2023-01-28T08:15:44.168Z,85.18
2023-01-28T08:18:13.660Z,85.88
2023-01-28T08:20:43.667Z,85.08
2023-01-28T08:23:19.422Z,85.92
2023-01-28T08:25:47.853Z,88.15
2023-01-28T08:28:16.802Z,87.81
2023-01-28T08:30:45.162Z,88.83
2023-01-28T08:33:14.960Z,90.51
2023-01-28T08:35:42.733Z,90.58
2023-01-28T08:38:12.470Z,91.17
2023-01-28T08:40:40.147Z,90.57
2023-01-28T08:43:07.704Z,90.87
2023-01-28T08:45:35.111Z,91.74
2023-01-28T08:48:06.564Z,91.94
2023-01-28T08:50:38.734Z,87.85
2023-01-28T08:53:15.803Z,82.58
2023-01-28T08:55:44.114Z,80.72
2023-01-28T08:58:14.245Z,77.39
2023-01-28T09:00:42.300Z,73.65
2023-01-28T09:03:10.071Z,69.61
2023-01-28T09:05:38.473Z,67.34
2023-01-28T09:08:11.498Z,64.53
2023-01-28T09:10:39.781Z,63.06
2023-01-28T09:13:09.812Z,62.66
2023-01-28T09:15:37.941Z,62.91
2023-01-28T09:18:06.327Z,62.22
2023-01-28T09:20:34.622Z,61.47
2023-01-28T09:23:02.785Z,60.91
2023-01-28T09:25:30.755Z,60.63
2023-01-28T09:27:58.535Z,58.66
2023-01-28T09:30:26.634Z,58.97
2023-01-28T09:32:55.367Z,58.21
2023-01-28T09:35:23.671Z,57.83
2023-01-28T09:37:52.173Z,57.95
2023-01-28T09:40:33.056Z,59.13
2023-01-28T09:43:19.089Z,61.15
2023-01-28T09:45:49.188Z,60.28
2023-01-28T09:48:21.852Z,60.01
2023-01-28T09:50:53.059Z,58.63
2023-01-28T09:53:50.574Z,58.70
2023-01-28T09:56:40.035Z,59.26
2023-01-28T09:59:22.017Z,60.27
2023-01-28T10:02:19.169Z,61.36
2023-01-28T10:05:14.734Z,60.27
2023-01-28T10:07:57.732Z,59.38
2023-01-28T10:10:41.014Z,61.44
2023-01-28T10:13:39.936Z,62.80
2023-01-28T10:16:24.565Z,63.59
2023-01-28T10:19:06.002Z,64.05
2023-01-28T10:21:52.061Z,65.93
2023-01-28T10:24:36.044Z,68.76
2023-01-28T10:27:11.104Z,70.61
2023-01-28T10:29:40.000Z,71.30
2023-01-28T10:32:34.948Z,72.20
2023-01-28T10:35:03.636Z,73.37
2023-01-28T10:37:35.029Z,74.13
2023-01-28T10:40:04.213Z,75.31
2023-01-28T10:42:38.941Z,75.67
2023-01-28T10:45:10.403Z,76.54
2023-01-28T10:47:54.756Z,77.98
2023-01-28T10:50:25.220Z,79.81
2023-01-28T10:52:58.541Z,82.48
2023-01-28T10:55:30.853Z,84.07
2023-01-28T10:57:59.473Z,84.87
2023-01-28T11:00:33.112Z,88.38
2023-01-28T11:03:00.643Z,89.09
2023-01-28T11:05:29.675Z,88.64
2023-01-28T11:08:15.615Z,88.83
2023-01-28T11:10:44.585Z,89.18
2023-01-28T11:13:18.662Z,89.69
2023-01-28T11:15:49.332Z,89.93
2023-01-28T11:18:25.086Z,89.19
2023-01-28T11:20:57.158Z,89.74
2023-01-28T11:23:59.577Z,91.24
2023-01-28T11:26:35.019Z,91.33
2023-01-28T11:29:02.737Z,91.38
2023-01-28T11:31:43.071Z,90.54
2023-01-28T11:34:16.122Z,89.26
2023-01-28T11:37:13.880Z,89.07
2023-01-28T11:39:41.756Z,91.70
2023-01-28T11:42:17.750Z,92.87
2023-01-28T11:44:46.803Z,93.74
2023-01-28T11:47:20.498Z,94.75
2023-01-28T11:50:00.696Z,95.23
2023-01-28T11:53:06.407Z,94.89
2023-01-28T11:55:42.032Z,94.22
2023-01-28T11:58:24.152Z,94.88
2023-01-28T12:01:22.917Z,94.68
2023-01-28T12:04:15.022Z,94.16
2023-01-28T12:07:41.232Z,94.42
2023-01-28T12:10:25.683Z,94.34
2023-01-28T12:13:05.889Z,93.94
2023-01-28T12:15:33.414Z,95.85
2023-01-28T12:18:06.869Z,96.23
2023-01-28T12:20:53.083Z,96.95
2023-01-28T12:24:04.087Z,97.93
2023-01-28T12:26:31.688Z,96.57
2023-01-28T12:29:08.912Z,96.67
2023-01-28T12:31:48.146Z,96.09
2023-01-28T12:34:55.351Z,96.05
2023-01-28T12:38:10.709Z,95.51
2023-01-28T12:40:43.848Z,93.71
2023-01-28T12:43:29.643Z,89.24
2023-01-28T12:46:12.893Z,88.20
2023-01-28T12:48:47.929Z,88.63
2023-01-28T12:51:25.234Z,87.45
2023-01-28T12:54:01.406Z,86.09
2023-01-28T12:56:34.621Z,86.49
2023-01-28T12:59:25.702Z,87.50
2023-01-28T13:02:01.613Z,87.36
2023-01-28T13:04:42.658Z,87.37
2023-01-28T13:07:39.671Z,87.46
2023-01-28T13:10:13.538Z,87.81
2023-01-28T13:12:41.939Z,88.86
2023-01-28T13:15:18.423Z,89.22
2023-01-28T13:17:59.954Z,90.37
2023-01-28T13:20:46.389Z,90.95
2023-01-28T13:23:26.063Z,91.32
2023-01-28T13:25:55.692Z,91.67
2023-01-28T13:28:32.417Z,90.93
2023-01-28T13:31:09.553Z,90.46
2023-01-28T13:33:39.816Z,89.93
2023-01-28T13:36:45.484Z,89.47
2023-01-28T13:39:22.677Z,89.01
2023-01-28T13:42:09.947Z,89.38
2023-01-28T13:44:38.159Z,89.75
2023-01-28T13:47:08.531Z,89.31
2023-01-28T13:49:47.150Z,89.94
2023-01-28T13:52:14.566Z,89.67
2023-01-28T13:54:48.125Z,88.53
2023-01-28T13:57:57.785Z,88.12
2023-01-28T14:00:42.620Z,87.22
2023-01-28T14:03:37.387Z,87.41
2023-01-28T14:06:29.803Z,87.43
2023-01-28T14:09:21.386Z,86.63
2023-01-28T14:12:33.673Z,87.48
2023-01-28T14:15:25.527Z,87.21
2023-01-28T14:17:56.206Z,87.80
2023-01-28T14:20:32.803Z,88.89
2023-01-28T14:23:06.784Z,88.89
2023-01-28T14:25:50.556Z,89.18
2023-01-28T14:28:31.289Z,87.80
2023-01-28T14:31:09.322Z,86.22
2023-01-28T14:33:38.155Z,86.33
2023-01-28T14:36:06.013Z,86.75
2023-01-28T14:38:39.873Z,87.07
2023-01-28T14:41:09.011Z,87.17
2023-01-28T14:43:40.035Z,86.38
2023-01-28T14:46:35.035Z,86.92
2023-01-28T14:49:40.771Z,86.90
2023-01-28T14:52:54.880Z,85.93
2023-01-28T14:55:45.638Z,83.73
2023-01-28T14:58:18.701Z,82.87
2023-01-28T15:00:55.561Z,82.62
2023-01-28T15:03:25.298Z,81.29
2023-01-28T15:06:13.085Z,79.43
2023-01-28T15:08:40.873Z,79.67
2023-01-28T15:11:16.766Z,79.07
2023-01-28T15:13:47.692Z,79.65
2023-01-28T15:16:24.774Z,78.70
2023-01-28T15:18:53.195Z,78.64
2023-01-28T15:21:25.923Z,78.87
2023-01-28T15:23:56.833Z,78.11
2023-01-28T15:26:35.038Z,77.41
2023-01-28T15:29:02.687Z,76.89
2023-01-28T15:31:39.079Z,77.79
2023-01-28T15:34:18.830Z,78.55
2023-01-28T15:36:49.682Z,79.27
2023-01-28T15:39:20.938Z,79.19
2023-01-28T15:42:01.627Z,79.28
2023-01-28T15:44:39.027Z,80.15
2023-01-28T15:47:23.485Z,80.50
2023-01-28T15:49:54.375Z,80.93
2023-01-28T15:52:29.573Z,79.93
2023-01-28T15:54:58.013Z,79.51
2023-01-28T15:57:31.148Z,79.47
2023-01-28T16:00:13.385Z,80.36
2023-01-28T16:02:46.295Z,77.48
2023-01-28T16:05:37.355Z,77.40
2023-01-28T16:08:12.125Z,76.79
2023-01-28T16:10:39.773Z,76.00
2023-01-28T16:13:17.108Z,76.59
2023-01-28T16:15:52.809Z,75.31
2023-01-28T16:18:26.829Z,72.40
2023-01-28T16:20:54.562Z,70.07
2023-01-28T16:23:29.073Z,70.13
2023-01-28T16:26:04.791Z,69.28
2023-01-28T16:28:33.129Z,67.93
2023-01-28T16:31:00.845Z,68.42
2023-01-28T16:33:28.497Z,68.87
2023-01-28T16:36:07.817Z,69.28
2023-01-28T16:38:36.297Z,69.52
2023-01-28T16:41:03.998Z,69.69
2023-01-28T16:43:31.478Z,69.85
2023-01-28T16:45:58.906Z,70.96
2023-01-28T16:48:26.159Z,72.02
2023-01-28T16:50:53.499Z,72.14
2023-01-28T16:53:23.066Z,72.66
2023-01-28T16:55:51.537Z,72.83
2023-01-28T16:58:24.266Z,73.21
2023-01-28T17:00:51.851Z,74.16
2023-01-28T17:03:20.022Z,74.28
2023-01-28T17:05:47.582Z,74.74
2023-01-28T17:08:15.420Z,75.65
2023-01-28T17:10:43.259Z,75.80
2023-01-28T17:13:10.799Z,75.74
2023-01-28T17:15:38.266Z,77.21
2023-01-28T17:18:05.674Z,77.10
2023-01-28T17:20:37.507Z,78.03
2023-01-28T17:23:07.179Z,78.34
2023-01-28T17:25:41.867Z,78.71
2023-01-28T17:28:10.755Z,79.12
2023-01-28T17:30:42.432Z,78.75
2023-01-28T17:33:10.244Z,79.42
2023-01-28T17:35:37.981Z,79.55
2023-01-28T17:38:06.169Z,79.19
2023-01-28T17:40:33.790Z,79.54
2023-01-28T17:43:01.329Z,78.61
2023-01-28T17:45:31.210Z,78.43
2023-01-28T17:47:58.746Z,78.07
2023-01-28T17:50:26.456Z,78.59
2023-01-28T17:52:57.743Z,78.93
2023-01-28T17:55:25.877Z,79.78
2023-01-28T17:57:53.272Z,80.34
2023-01-28T18:00:21.123Z,80.85
2023-01-28T18:02:52.552Z,80.32
2023-01-28T18:05:21.374Z,79.20
2023-01-28T18:07:50.557Z,79.35
2023-01-28T18:10:18.971Z,79.12
2023-01-28T18:12:46.557Z,78.58
2023-01-28T18:15:14.426Z,77.23
2023-01-28T18:17:42.139Z,77.12
2023-01-28T18:20:10.958Z,77.39
2023-01-28T18:22:38.385Z,77.62
2023-01-28T18:25:05.990Z,77.68
2023-01-28T18:27:33.358Z,77.69
2023-01-28T18:30:00.861Z,77.52
2023-01-28T18:32:28.205Z,76.38
2023-01-28T18:34:55.872Z,77.15
2023-01-28T18:37:23.210Z,76.18
2023-01-28T18:39:50.596Z,77.04
2023-01-28T18:42:18.023Z,77.43
2023-01-28T18:44:45.399Z,78.30
2023-01-28T18:47:12.682Z,77.40
2023-01-28T18:49:43.405Z,76.87
2023-01-28T18:52:11.002Z,77.91
2023-01-28T18:54:38.602Z,76.93
2023-01-28T18:57:06.221Z,75.45
2023-01-28T18:59:33.469Z,74.82
2023-01-28T19:02:01.118Z,75.34
2023-01-28T19:04:28.566Z,74.36
2023-01-28T19:06:57.490Z,75.66
2023-01-28T19:09:24.959Z,76.48
2023-01-28T19:11:52.489Z,76.51
2023-01-28T19:14:19.822Z,76.88
2023-01-28T19:16:47.263Z,74.93
2023-01-28T19:19:14.831Z,75.20
2023-01-28T19:21:42.289Z,75.28
2023-01-28T19:24:11.711Z,75.07
2023-01-28T19:26:39.204Z,75.31
2023-01-28T19:29:07.953Z,76.22
2023-01-28T19:31:36.040Z,75.72
2023-01-28T19:34:04.023Z,74.71
2023-01-28T19:36:33.775Z,76.22
2023-01-28T19:39:08.918Z,76.46
2023-01-28T19:41:36.684Z,76.07
2023-01-28T19:44:05.585Z,76.07
2023-01-28T19:46:34.035Z,76.45
2023-01-28T19:49:01.574Z,77.71
2023-01-28T19:51:29.100Z,76.66
2023-01-28T19:53:56.443Z,76.81
2023-01-28T19:56:27.211Z,77.39
2023-01-28T19:58:55.000Z,76.61
2023-01-28T20:01:27.182Z,76.71
2023-01-28T20:03:59.272Z,77.06
2023-01-28T20:06:29.917Z,76.45
2023-01-28T20:09:00.809Z,76.92
2023-01-28T20:11:29.190Z,76.03
2023-01-28T20:13:56.895Z,75.73
2023-01-28T20:16:26.553Z,74.71
2023-01-28T20:18:59.966Z,75.71
2023-01-28T20:21:29.859Z,74.57
2023-01-28T20:23:59.748Z,75.05
2023-01-28T20:26:36.213Z,74.46
2023-01-28T20:29:17.455Z,75.66
2023-01-28T20:31:45.078Z,75.00
2023-01-28T20:34:18.796Z,73.60
2023-01-28T20:36:46.606Z,74.61
2023-01-28T20:39:16.624Z,74.03
2023-01-28T20:41:44.171Z,73.62
2023-01-28T20:44:11.707Z,74.08
2023-01-28T20:46:39.309Z,74.29
2023-01-28T20:49:06.868Z,75.32
2023-01-28T20:51:35.952Z,73.49
2023-01-28T20:54:04.109Z,73.79
2023-01-28T20:56:31.949Z,74.98
2023-01-28T20:59:02.749Z,74.76
2023-01-28T21:01:34.247Z,73.30
2023-01-28T21:04:02.730Z,74.40
2023-01-28T21:06:30.736Z,74.85
2023-01-28T21:08:58.699Z,75.06
2023-01-28T21:11:27.205Z,74.12
2023-01-28T21:13:55.479Z,73.27
2023-01-28T21:16:23.303Z,73.63
2023-01-28T21:18:50.966Z,73.59
2023-01-28T21:21:24.802Z,74.33
2023-01-28T21:23:56.833Z,73.24
2023-01-28T21:26:24.726Z,74.00
2023-01-28T21:28:52.305Z,72.16
2023-01-28T21:31:28.095Z,72.99
2023-01-28T21:34:04.055Z,73.48
2023-01-28T21:36:34.368Z,72.79
2023-01-28T21:39:03.136Z,73.32
2023-01-28T21:41:31.429Z,74.23
2023-01-28T21:43:59.214Z,73.81
2023-01-28T21:46:29.534Z,74.64
2023-01-28T21:48:59.228Z,75.27
2023-01-28T21:51:36.472Z,74.77
2023-01-28T21:54:04.275Z,74.41
2023-01-28T21:56:31.940Z,74.59
2023-01-28T21:59:17.856Z,75.22
2023-01-28T22:01:46.182Z,75.08
2023-01-28T22:04:14.633Z,76.01
2023-01-28T22:06:42.710Z,77.07
2023-01-28T22:09:14.488Z,76.90
2023-01-28T22:11:43.564Z,77.09
2023-01-28T22:14:12.315Z,77.29
2023-01-28T22:16:40.098Z,77.78
2023-01-28T22:19:08.028Z,77.18
2023-01-28T22:21:41.377Z,77.03
2023-01-28T22:24:17.558Z,76.58
2023-01-28T22:26:46.528Z,77.35
2023-01-28T22:29:15.907Z,77.57
2023-01-28T22:31:46.061Z,77.60
2023-01-28T22:34:13.993Z,75.79
2023-01-28T22:36:41.470Z,73.80
2023-01-28T22:39:13.550Z,75.23
2023-01-28T22:41:42.327Z,76.15
2023-01-28T22:44:10.096Z,75.20
2023-01-28T22:46:37.770Z,75.45
2023-01-28T22:49:05.616Z,75.87
2023-01-28T22:51:35.832Z,76.36
2023-01-28T22:54:04.177Z,76.78
2023-01-28T22:56:32.061Z,73.88
2023-01-28T22:59:02.408Z,74.47
2023-01-28T23:01:30.790Z,73.95
2023-01-28T23:03:58.521Z,74.24
2023-01-28T23:06:28.242Z,75.33
2023-01-28T23:08:56.641Z,74.21
2023-01-28T23:11:25.670Z,75.53
2023-01-28T23:14:17.496Z,75.19
2023-01-28T23:17:04.775Z,74.67
2023-01-28T23:19:51.094Z,74.34
2023-01-28T23:22:51.655Z,74.34
2023-01-28T23:25:20.272Z,74.85
2023-01-28T23:27:47.770Z,74.54
2023-01-28T23:30:16.082Z,74.48
2023-01-28T23:32:47.323Z,75.57
2023-01-28T23:35:15.582Z,76.34
2023-01-28T23:37:43.038Z,75.64
2023-01-28T23:40:11.486Z,75.06
2023-01-28T23:42:39.052Z,76.54
2023-01-28T23:45:07.233Z,77.70
2023-01-28T23:47:34.727Z,76.22
2023-01-28T23:50:02.390Z,76.22
2023-01-28T23:52:29.838Z,77.40
2023-01-28T23:54:57.357Z,76.83
2023-01-28T23:57:24.875Z,76.80
2023-01-28T23:59:52.364Z,78.03
